Time;durP1;ratioP1;P1;durP2;ratioP2;P2;SDS_P1;SDS_P2;PMS_P1;PMS_P2;Temp;Humidity;BMP_temperature;BMP_pressure;BME280_temperature;BME280_humidity;BME280_pressure;Samples;Min_cycle;Max_cycle;Signal;HPM_P1;HPM_P2
2022/10/22 00:01:19;;;;;;;12.37;11.07;;;12.50;99.90;;;;;;4939211;29;20187;-87
2022/10/22 00:03:44;;;;;;;13.23;10.70;;;12.50;99.90;;;;;;4939475;29;20191;-87
2022/10/22 00:06:10;;;;;;;13.83;10.77;;;12.50;99.90;;;;;;4939089;29;20641;-86
2022/10/22 00:08:36;;;;;;;11.53;10.33;;;12.50;99.90;;;;;;4957130;29;20199;-87
2022/10/22 00:11:11;;;;;;;14.30;10.87;;;12.50;99.90;;;;;;4947445;29;20246;-86
2022/10/22 00:13:37;;;;;;;14.37;11.80;;;12.50;99.90;;;;;;4943964;29;20668;-87
2022/10/22 00:16:03;;;;;;;13.57;11.07;;;12.50;99.90;;;;;;4958321;29;20175;-87
2022/10/22 00:18:28;;;;;;;14.40;11.50;;;12.40;99.90;;;;;;4963979;28;20201;-87
2022/10/22 00:20:54;;;;;;;12.97;11.37;;;12.30;99.90;;;;;;4960792;29;20168;-87
2022/10/22 00:23:20;;;;;;;12.23;10.90;;;12.40;99.90;;;;;;4979355;29;20248;-87
2022/10/22 00:25:46;;;;;;;13.57;11.07;;;12.50;99.90;;;;;;4949690;29;20539;-87
2022/10/22 00:28:11;;;;;;;12.60;10.43;;;12.60;99.90;;;;;;4939477;29;20187;-87
2022/10/22 00:30:37;;;;;;;12.73;10.50;;;12.60;99.90;;;;;;4956034;29;20185;-87
2022/10/22 00:33:03;;;;;;;15.73;10.67;;;12.60;99.90;;;;;;4955726;29;20203;-87
2022/10/22 00:35:29;;;;;;;13.43;10.90;;;12.70;99.90;;;;;;4955672;29;20175;-87
2022/10/22 00:37:54;;;;;;;12.33;10.23;;;12.70;99.90;;;;;;4955371;29;20200;-86
2022/10/22 00:40:20;;;;;;;12.13;10.27;;;12.70;99.90;;;;;;4938152;29;20242;-86
2022/10/22 00:42:46;;;;;;;11.93;10.37;;;12.70;99.90;;;;;;4955470;29;20175;-87
2022/10/22 00:45:11;;;;;;;12.10;10.90;;;12.80;99.90;;;;;;4955643;29;20179;-87
2022/10/22 00:48:08;;;;;;;13.43;10.67;;;12.70;99.90;;;;;;4958876;29;20175;-87
2022/10/22 00:51:05;;;;;;;11.53;10.33;;;12.80;99.90;;;;;;4977069;29;20168;-86
2022/10/22 00:53:44;;;;;;;12.77;10.73;;;12.70;99.90;;;;;;4863035;29;20706;-87
2022/10/22 00:56:10;;;;;;;13.63;10.70;;;12.80;99.90;;;;;;4860347;29;20796;-87
2022/10/22 00:58:40;;;;;;;14.00;10.53;;;12.80;99.90;;;;;;4844059;29;20237;-87
2022/10/22 01:01:11;;;;;;;13.40;10.77;;;12.70;99.90;;;;;;4858740;29;20189;-87
2022/10/22 01:03:37;;;;;;;13.33;11.03;;;12.60;99.90;;;;;;4858826;29;20183;-87
2022/10/22 01:06:04;;;;;;;14.07;10.07;;;12.50;99.90;;;;;;4859186;29;20187;-86
2022/10/22 01:08:44;;;;;;;14.93;10.60;;;12.50;99.90;;;;;;4858449;29;20187;-87
2022/10/22 01:11:28;;;;;;;11.03;9.83;;;12.50;99.90;;;;;;4858315;29;20196;-86
2022/10/22 01:14:04;;;;;;;15.80;10.37;;;12.60;99.90;;;;;;4860800;29;20186;-87
2022/10/22 01:16:43;;;;;;;11.27;9.73;;;12.50;99.90;;;;;;4859523;29;20193;-87
2022/10/22 01:19:33;;;;;;;11.50;10.20;;;12.50;99.90;;;;;;4858449;29;20220;-88
2022/10/22 01:22:07;;;;;;;13.80;11.07;;;12.40;99.90;;;;;;4858305;29;20707;-87
2022/10/22 01:24:33;;;;;;;12.40;10.17;;;12.40;99.90;;;;;;4858182;29;20213;-88
2022/10/22 01:27:19;;;;;;;12.80;10.23;;;12.40;99.90;;;;;;4858259;29;20727;-87
2022/10/22 01:29:58;;;;;;;11.57;10.00;;;12.30;99.90;;;;;;4883468;29;20623;-86
2022/10/22 01:32:26;;;;;;;11.47;10.27;;;12.20;99.90;;;;;;4916549;29;20161;-87
2022/10/22 01:34:57;;;;;;;13.17;10.10;;;12.10;99.90;;;;;;4916487;29;20187;-86
2022/10/22 01:37:25;;;;;;;11.67;10.47;;;12.10;99.90;;;;;;4916662;29;20195;-86
2022/10/22 01:39:53;;;;;;;13.83;10.83;;;12.00;99.90;;;;;;4916738;29;20180;-87
2022/10/22 01:42:18;;;;;;;11.53;10.00;;;11.90;99.90;;;;;;4919376;29;20902;-87
2022/10/22 01:44:45;;;;;;;11.63;10.40;;;11.90;99.90;;;;;;4904991;29;20224;-86
2022/10/22 01:47:36;;;;;;;12.13;10.83;;;12.00;99.90;;;;;;4919030;29;20169;-87
2022/10/22 01:50:23;;;;;;;12.27;10.53;;;12.00;99.90;;;;;;4918142;29;20187;-86
2022/10/22 01:53:13;;;;;;;13.47;10.97;;;12.00;99.90;;;;;;4917843;29;20647;-86
2022/10/22 01:55:53;;;;;;;11.77;10.40;;;11.90;99.90;;;;;;4937048;29;20529;-86
2022/10/22 01:58:31;;;;;;;13.30;10.60;;;11.90;99.90;;;;;;4934261;29;20191;-86
2022/10/22 02:01:16;;;;;;;13.37;10.70;;;11.90;99.90;;;;;;4959051;29;20168;-87
2022/10/22 02:04:14;;;;;;;11.87;10.37;;;11.90;99.90;;;;;;4937625;29;20172;-87
2022/10/22 02:06:43;;;;;;;12.07;9.90;;;11.90;99.90;;;;;;4917949;29;20219;-87
2022/10/22 02:09:12;;;;;;;11.17;9.97;;;11.80;99.90;;;;;;4935068;29;20180;-86
2022/10/22 02:11:40;;;;;;;11.90;10.70;;;11.70;99.90;;;;;;4935265;29;20188;-86
2022/10/22 02:14:08;;;;;;;12.53;10.60;;;11.70;99.90;;;;;;4934896;29;20187;-87
2022/10/22 02:16:38;;;;;;;12.63;10.20;;;11.70;99.90;;;;;;4934914;29;20179;-86
2022/10/22 02:19:16;;;;;;;11.40;9.80;;;11.70;99.90;;;;;;4902281;29;20220;-86
2022/10/22 02:21:43;;;;;;;14.67;9.90;;;11.80;99.90;;;;;;4934926;29;20168;-86
2022/10/22 02:24:08;;;;;;;10.33;9.33;;;11.80;99.90;;;;;;4935019;29;20247;-86
2022/10/22 02:26:41;;;;;;;12.77;10.53;;;11.80;99.90;;;;;;4935002;29;20187;-87
2022/10/22 02:29:26;;;;;;;11.53;10.30;;;11.90;99.90;;;;;;4934842;29;20168;-87
2022/10/22 02:31:54;;;;;;;12.47;9.30;;;11.90;99.90;;;;;;4934965;29;20168;-87
2022/10/22 02:34:24;;;;;;;11.33;9.30;;;11.90;99.90;;;;;;4934711;29;20506;-86
2022/10/22 02:36:51;;;;;;;14.23;9.60;;;11.90;99.90;;;;;;4935154;29;20306;-86
2022/10/22 02:39:19;;;;;;;11.77;9.37;;;11.90;99.90;;;;;;4935430;29;20200;-86
2022/10/22 02:41:45;;;;;;;10.57;9.47;;;12.00;99.90;;;;;;4944031;29;20176;-86
2022/10/22 02:44:11;;;;;;;12.20;10.63;;;12.00;99.90;;;;;;4955353;29;20176;-87
2022/10/22 02:46:38;;;;;;;12.43;9.73;;;11.90;99.90;;;;;;4939638;29;20691;-86
2022/10/22 02:49:04;;;;;;;11.53;9.83;;;11.80;99.90;;;;;;4921309;29;20266;-87
2022/10/22 02:51:30;;;;;;;10.73;9.63;;;11.90;99.90;;;;;;4938046;29;20203;-87
2022/10/22 02:53:56;;;;;;;11.73;10.00;;;11.80;99.90;;;;;;4945200;29;20354;-86
2022/10/22 02:56:22;;;;;;;12.40;9.33;;;11.70;99.90;;;;;;4957502;29;20197;-87
2022/10/22 02:58:47;;;;;;;14.03;10.80;;;11.60;99.90;;;;;;4957070;29;20207;-86
2022/10/22 03:01:13;;;;;;;11.27;9.80;;;11.50;99.90;;;;;;4956821;29;20172;-86
2022/10/22 03:03:39;;;;;;;14.10;10.73;;;11.50;99.90;;;;;;4956883;29;20167;-87
2022/10/22 03:06:05;;;;;;;13.43;10.20;;;11.50;99.90;;;;;;4939660;29;20175;-86
2022/10/22 03:08:30;;;;;;;11.20;10.07;;;11.40;99.90;;;;;;4939703;29;20176;-87
2022/10/22 03:10:56;;;;;;;13.67;10.07;;;11.40;99.90;;;;;;4956616;29;20536;-86
2022/10/22 03:13:22;;;;;;;13.60;10.10;;;11.30;99.90;;;;;;4956570;29;20175;-86
2022/10/22 03:15:49;;;;;;;13.17;10.20;;;11.30;99.90;;;;;;4939588;29;20182;-87
2022/10/22 03:18:15;;;;;;;15.53;10.50;;;11.20;99.90;;;;;;4956762;29;20207;-87
2022/10/22 03:20:41;;;;;;;12.70;10.23;;;11.30;99.90;;;;;;4939447;29;20199;-86
2022/10/22 03:23:07;;;;;;;12.03;10.27;;;11.30;99.90;;;;;;4957055;29;20226;-87
2022/10/22 03:25:34;;;;;;;11.53;9.23;;;11.20;99.90;;;;;;4939768;29;20182;-86
2022/10/22 03:28:06;;;;;;;13.20;9.90;;;11.20;99.90;;;;;;4941116;29;20222;-86
2022/10/22 03:30:31;;;;;;;12.33;10.77;;;11.30;99.90;;;;;;4957994;29;20261;-87
2022/10/22 03:32:57;;;;;;;13.00;9.77;;;11.30;99.90;;;;;;4962164;29;20175;-86
2022/10/22 03:35:23;;;;;;;11.80;9.17;;;11.20;99.90;;;;;;4961691;29;20172;-88
2022/10/22 03:37:49;;;;;;;13.27;10.23;;;11.20;99.90;;;;;;4966943;29;20243;-87
2022/10/22 03:40:16;;;;;;;12.40;10.90;;;11.30;99.90;;;;;;4965018;29;20195;-86
2022/10/22 03:42:42;;;;;;;11.33;10.13;;;11.20;99.90;;;;;;4957786;29;20186;-87
2022/10/22 03:45:08;;;;;;;11.27;10.03;;;11.20;99.90;;;;;;4940456;29;20187;-87
2022/10/22 03:47:36;;;;;;;11.70;9.50;;;11.20;99.90;;;;;;4957062;29;20234;-88
2022/10/22 03:50:02;;;;;;;12.23;10.23;;;11.20;99.90;;;;;;4966761;29;20230;-87
2022/10/22 03:52:28;;;;;;;10.83;9.17;;;11.20;99.90;;;;;;4958132;28;20192;-86
2022/10/22 03:54:54;;;;;;;14.67;10.27;;;11.20;99.90;;;;;;4956189;29;20587;-86
2022/10/22 03:57:19;;;;;;;11.70;9.73;;;11.10;99.90;;;;;;4938630;29;20186;-86
2022/10/22 03:59:46;;;;;;;12.60;10.10;;;11.10;99.90;;;;;;4955955;29;20211;-85
2022/10/22 04:02:13;;;;;;;10.57;9.50;;;11.10;99.90;;;;;;4955840;29;20180;-86
2022/10/22 04:04:39;;;;;;;12.50;10.43;;;11.10;99.90;;;;;;4955801;29;20199;-86
2022/10/22 04:07:06;;;;;;;11.53;9.93;;;11.00;99.90;;;;;;4955752;29;20282;-87
2022/10/22 04:09:33;;;;;;;10.87;9.77;;;11.10;99.90;;;;;;4955759;29;20199;-87
2022/10/22 04:11:59;;;;;;;12.07;9.77;;;11.10;99.90;;;;;;4955724;29;20191;-85
2022/10/22 04:14:25;;;;;;;10.83;9.77;;;11.10;99.90;;;;;;4955676;29;20175;-87
2022/10/22 04:16:50;;;;;;;10.30;9.23;;;11.00;99.90;;;;;;4938458;29;20194;-87
2022/10/22 04:19:17;;;;;;;11.53;9.90;;;11.00;99.90;;;;;;4955895;29;20211;-87
2022/10/22 04:21:43;;;;;;;12.33;10.00;;;11.00;99.90;;;;;;4955510;29;20168;-87
2022/10/22 04:24:09;;;;;;;11.63;10.07;;;11.00;99.90;;;;;;4955584;29;20211;-86
2022/10/22 04:26:35;;;;;;;12.03;10.03;;;11.00;99.90;;;;;;4955754;29;20179;-86
2022/10/22 04:29:00;;;;;;;14.27;10.23;;;11.10;99.90;;;;;;4955832;29;20175;-86
2022/10/22 04:31:26;;;;;;;11.73;9.63;;;11.20;99.90;;;;;;4940440;29;20202;-87
2022/10/22 04:33:54;;;;;;;12.33;9.30;;;11.30;99.90;;;;;;4976693;29;20190;-87
2022/10/22 04:36:20;;;;;;;10.80;9.13;;;11.30;99.90;;;;;;4975560;29;20156;-87
2022/10/22 04:38:50;;;;;;;12.83;9.97;;;11.30;99.90;;;;;;4958354;29;20211;-86
2022/10/22 04:41:19;;;;;;;10.70;9.60;;;11.20;99.90;;;;;;4938855;29;20231;-87
2022/10/22 04:43:46;;;;;;;14.77;10.67;;;11.20;99.90;;;;;;4955552;29;20190;-87
2022/10/22 04:46:15;;;;;;;11.00;9.77;;;11.20;99.90;;;;;;4936043;29;20186;-86
2022/10/22 04:48:42;;;;;;;12.37;10.00;;;11.10;99.90;;;;;;4946282;29;20187;-87
2022/10/22 04:51:11;;;;;;;10.67;9.33;;;11.00;99.90;;;;;;4923386;29;20219;-86
2022/10/22 04:53:39;;;;;;;11.43;9.17;;;11.00;99.90;;;;;;4941566;29;20219;-87
2022/10/22 04:56:15;;;;;;;13.97;9.60;;;10.90;99.90;;;;;;4939424;28;20179;-85
2022/10/22 04:58:41;;;;;;;14.47;9.53;;;11.00;99.90;;;;;;4938272;29;20202;-87
2022/10/22 05:01:16;;;;;;;12.37;9.27;;;11.10;99.90;;;;;;4937908;29;20171;-86
2022/10/22 05:03:43;;;;;;;11.20;9.73;;;11.10;99.90;;;;;;4955823;28;20237;-87
2022/10/22 05:06:10;;;;;;;14.27;9.40;;;11.10;99.90;;;;;;4939006;29;20215;-87
2022/10/22 05:08:35;;;;;;;11.17;9.50;;;11.00;99.90;;;;;;4956679;29;20639;-87
2022/10/22 05:11:10;;;;;;;11.87;9.63;;;11.00;99.90;;;;;;4956934;29;20183;-86
2022/10/22 05:13:35;;;;;;;12.80;10.10;;;11.00;99.90;;;;;;4977456;29;20182;-88
2022/10/22 05:16:01;;;;;;;12.10;9.43;;;11.00;99.90;;;;;;4962228;29;20215;-87
2022/10/22 05:18:27;;;;;;;10.83;9.73;;;11.00;99.90;;;;;;4939924;29;20738;-86
2022/10/22 05:20:52;;;;;;;10.10;9.03;;;10.90;99.90;;;;;;4938762;29;20274;-86
2022/10/22 05:23:18;;;;;;;9.80;8.80;;;11.00;99.90;;;;;;4959533;29;20186;-87
2022/10/22 05:25:44;;;;;;;11.93;9.57;;;11.00;99.90;;;;;;4957132;29;20217;-86
2022/10/22 05:28:10;;;;;;;12.70;9.37;;;11.10;99.90;;;;;;4956930;29;20180;-87
2022/10/22 05:30:35;;;;;;;10.93;9.80;;;11.00;99.90;;;;;;4955182;29;20179;-87
2022/10/22 05:33:01;;;;;;;13.00;9.40;;;11.00;99.90;;;;;;4958870;29;20193;-87
2022/10/22 05:35:27;;;;;;;12.27;9.67;;;10.90;99.90;;;;;;4940669;29;20237;-87
2022/10/22 05:37:53;;;;;;;13.43;9.43;;;10.90;99.90;;;;;;4958948;29;20666;-87
2022/10/22 05:40:18;;;;;;;9.97;8.93;;;11.10;99.90;;;;;;4937994;29;20190;-87
2022/10/22 05:42:44;;;;;;;12.33;9.40;;;11.00;99.90;;;;;;4937923;29;20179;-87
2022/10/22 05:45:10;;;;;;;11.27;9.30;;;11.10;99.90;;;;;;4955119;29;20189;-87
2022/10/22 05:47:36;;;;;;;11.03;9.43;;;11.20;99.90;;;;;;4955148;29;20262;-87
2022/10/22 05:50:02;;;;;;;10.60;8.67;;;11.20;99.90;;;;;;4954735;29;20594;-86
2022/10/22 05:52:27;;;;;;;10.60;8.80;;;11.20;99.90;;;;;;4954831;29;20191;-87
2022/10/22 05:54:53;;;;;;;10.40;9.07;;;11.10;99.90;;;;;;4954706;29;20241;-86
2022/10/22 05:57:19;;;;;;;12.77;9.17;;;11.10;99.90;;;;;;4954834;29;20627;-87
2022/10/22 05:59:45;;;;;;;15.20;9.03;;;11.20;99.90;;;;;;4955166;29;20246;-88
2022/10/22 06:02:11;;;;;;;10.93;8.30;;;11.30;99.90;;;;;;4938341;29;20186;-88
2022/10/22 06:04:36;;;;;;;11.60;8.93;;;11.40;99.90;;;;;;4956199;29;20270;-88
2022/10/22 06:07:03;;;;;;;10.27;9.17;;;11.40;99.90;;;;;;4937770;29;20187;-88
2022/10/22 06:09:33;;;;;;;10.47;8.63;;;11.40;99.90;;;;;;4954669;29;20207;-87
2022/10/22 06:11:59;;;;;;;10.90;9.27;;;11.50;99.90;;;;;;4955143;29;20183;-87
2022/10/22 06:14:42;;;;;;;12.20;9.40;;;11.50;99.90;;;;;;4958460;28;20155;-87
2022/10/22 06:17:10;;;;;;;7.97;7.13;;;11.50;99.90;;;;;;4966511;28;20554;-87
2022/10/22 06:19:36;;;;;;;12.80;8.67;;;11.50;99.90;;;;;;4958244;29;20234;-86
2022/10/22 06:22:03;;;;;;;11.27;8.40;;;11.50;99.90;;;;;;4942330;29;20518;-87
2022/10/22 06:24:29;;;;;;;9.73;8.77;;;11.50;99.90;;;;;;4968740;29;20182;-87
2022/10/22 06:26:54;;;;;;;11.27;8.53;;;11.60;99.90;;;;;;4976725;29;20220;-87
2022/10/22 06:29:21;;;;;;;12.00;8.33;;;11.70;99.90;;;;;;4971496;29;20642;-87
2022/10/22 06:31:47;;;;;;;8.47;7.33;;;11.70;99.90;;;;;;4957281;29;20190;-87
2022/10/22 06:34:13;;;;;;;8.30;7.50;;;11.80;99.90;;;;;;4944455;28;20171;-87
2022/10/22 06:36:42;;;;;;;11.13;7.50;;;11.90;99.90;;;;;;4940703;29;20179;-87
2022/10/22 06:39:11;;;;;;;10.30;7.90;;;12.10;99.90;;;;;;4938649;29;20222;-87
2022/10/22 06:41:37;;;;;;;10.20;7.90;;;12.20;99.90;;;;;;4940141;29;20179;-87
2022/10/22 06:44:03;;;;;;;10.47;8.03;;;12.30;99.90;;;;;;4938573;29;20184;-87
2022/10/22 06:46:30;;;;;;;9.00;7.50;;;12.40;99.90;;;;;;4940728;29;20178;-87
2022/10/22 06:49:01;;;;;;;9.10;8.20;;;12.40;99.90;;;;;;4946190;29;20187;-86
2022/10/22 06:51:28;;;;;;;9.80;8.23;;;12.50;99.90;;;;;;4986346;28;20178;-88
2022/10/22 06:53:55;;;;;;;11.23;8.23;;;12.70;99.90;;;;;;4992553;28;20230;-87
2022/10/22 06:56:23;;;;;;;12.13;8.20;;;12.60;99.90;;;;;;4979446;28;20712;-87
2022/10/22 06:58:50;;;;;;;9.77;8.37;;;12.70;99.90;;;;;;4978026;28;20235;-87
2022/10/22 07:01:18;;;;;;;9.83;8.23;;;12.70;99.90;;;;;;4981156;28;20176;-87
2022/10/22 07:03:44;;;;;;;11.30;8.70;;;12.70;99.90;;;;;;4979291;28;20193;-86
2022/10/22 07:06:12;;;;;;;12.90;8.60;;;12.70;99.90;;;;;;4960031;28;20634;-86
2022/10/22 07:08:39;;;;;;;12.53;8.20;;;12.60;99.90;;;;;;4978403;28;20181;-87
2022/10/22 07:11:19;;;;;;;11.30;8.03;;;12.60;99.90;;;;;;4980066;28;20211;-87
2022/10/22 07:13:45;;;;;;;9.00;7.80;;;12.60;99.90;;;;;;4977982;28;20159;-87
2022/10/22 07:16:12;;;;;;;8.33;7.50;;;12.60;99.90;;;;;;4978775;28;20177;-87
2022/10/22 07:18:39;;;;;;;11.30;8.33;;;12.60;99.90;;;;;;4961289;28;20253;-87
2022/10/22 07:21:06;;;;;;;10.23;7.77;;;12.80;99.90;;;;;;4976943;28;20250;-88
2022/10/22 07:23:32;;;;;;;11.53;7.77;;;12.80;99.90;;;;;;4966045;28;20179;-88
2022/10/22 07:25:58;;;;;;;11.23;8.30;;;12.80;99.90;;;;;;4982890;28;20245;-88
2022/10/22 07:28:24;;;;;;;12.93;8.83;;;12.80;99.90;;;;;;4976983;28;20233;-87
2022/10/22 07:30:50;;;;;;;10.30;8.93;;;13.00;99.90;;;;;;4958931;28;20170;-87
2022/10/22 07:33:16;;;;;;;13.00;9.83;;;13.00;99.90;;;;;;4976355;28;20185;-87
2022/10/22 07:35:42;;;;;;;14.50;9.93;;;13.10;99.90;;;;;;4976324;28;20195;-87
2022/10/22 07:38:08;;;;;;;13.00;9.30;;;13.10;99.90;;;;;;4958744;28;20210;-87
2022/10/22 07:40:34;;;;;;;11.47;8.50;;;13.20;99.90;;;;;;4976156;28;20173;-87
2022/10/22 07:43:00;;;;;;;10.70;7.90;;;13.20;99.90;;;;;;4976032;28;20638;-87
2022/10/22 07:45:26;;;;;;;7.60;6.57;;;13.30;99.90;;;;;;4975884;28;20657;-87
2022/10/22 07:47:52;;;;;;;7.80;7.03;;;13.40;99.90;;;;;;4958676;28;20268;-88
2022/10/22 07:50:18;;;;;;;8.60;6.93;;;13.30;99.90;;;;;;4958621;28;20730;-88
2022/10/22 07:52:44;;;;;;;9.20;6.93;;;13.30;99.90;;;;;;4976145;28;20180;-87
2022/10/22 07:55:11;;;;;;;8.50;6.67;;;13.40;99.90;;;;;;4975752;28;20261;-88
2022/10/22 07:57:41;;;;;;;8.03;6.40;;;13.40;99.90;;;;;;4958628;28;20622;-87
2022/10/22 08:00:08;;;;;;;10.83;6.60;;;13.30;99.90;;;;;;4975905;28;20185;-87
2022/10/22 08:02:34;;;;;;;7.90;6.17;;;13.40;99.90;;;;;;4976020;28;20584;-87
2022/10/22 08:05:00;;;;;;;7.87;6.23;;;13.40;99.90;;;;;;4976272;28;20189;-87
2022/10/22 08:07:26;;;;;;;9.83;6.13;;;13.50;99.90;;;;;;4975838;28;20264;-86
2022/10/22 08:09:52;;;;;;;6.80;6.10;;;13.50;99.90;;;;;;4959265;28;20181;-87
2022/10/22 08:12:17;;;;;;;7.07;5.57;;;13.50;99.90;;;;;;4976067;28;20206;-88
2022/10/22 08:14:43;;;;;;;8.73;6.27;;;13.60;99.90;;;;;;4969166;28;20166;-88
2022/10/22 08:17:09;;;;;;;6.27;5.50;;;13.60;99.90;;;;;;4994649;28;20169;-87
2022/10/22 08:19:35;;;;;;;7.27;6.07;;;13.60;99.90;;;;;;4991348;28;20214;-87
2022/10/22 08:22:01;;;;;;;8.67;5.87;;;13.60;99.90;;;;;;4979545;28;20233;-87
2022/10/22 08:24:27;;;;;;;8.73;5.80;;;13.60;99.90;;;;;;4989178;28;20177;-88
2022/10/22 08:26:54;;;;;;;6.77;5.40;;;13.70;99.90;;;;;;4999268;28;20175;-87
2022/10/22 08:29:22;;;;;;;7.23;6.43;;;13.80;99.90;;;;;;4971485;28;20230;-88
2022/10/22 08:31:48;;;;;;;8.23;6.23;;;13.90;99.90;;;;;;4976865;28;20171;-88
2022/10/22 08:34:15;;;;;;;6.30;5.53;;;13.90;99.90;;;;;;4976351;28;20179;-87
2022/10/22 08:36:41;;;;;;;7.03;5.90;;;13.90;99.90;;;;;;4975972;28;20225;-89
2022/10/22 08:39:07;;;;;;;8.13;6.03;;;14.00;99.90;;;;;;4971648;28;20609;-87
2022/10/22 08:41:42;;;;;;;6.47;5.73;;;14.10;99.90;;;;;;4975264;28;20175;-88
2022/10/22 08:44:14;;;;;;;6.03;5.50;;;14.20;99.90;;;;;;4975396;28;20174;-88
2022/10/22 08:47:05;;;;;;;7.50;6.47;;;14.20;99.90;;;;;;4973901;28;20170;-87
2022/10/22 08:49:35;;;;;;;8.40;5.97;;;14.30;99.90;;;;;;4971936;28;20191;-87
2022/10/22 08:52:01;;;;;;;6.90;5.63;;;14.30;99.90;;;;;;4959472;28;20179;-88
2022/10/22 08:54:38;;;;;;;6.60;5.97;;;14.40;99.90;;;;;;4958610;28;20288;-88
2022/10/22 08:57:31;;;;;;;7.27;6.53;;;14.40;99.90;;;;;;4974703;28;20151;-88
2022/10/22 09:00:21;;;;;;;7.93;7.10;;;14.50;99.90;;;;;;4956492;28;20198;-87
2022/10/22 09:02:55;;;;;;;8.10;6.53;;;14.40;99.90;;;;;;4976331;28;20170;-89
2022/10/22 09:05:57;;;;;;;7.50;6.73;;;14.50;99.90;;;;;;4975698;28;20193;-88
2022/10/22 09:08:23;;;;;;;8.73;6.17;;;14.50;99.90;;;;;;4976833;28;20245;-87
2022/10/22 09:11:06;;;;;;;8.67;6.60;;;14.50;99.90;;;;;;4940877;29;20182;-87
2022/10/22 09:13:33;;;;;;;8.27;6.40;;;14.60;99.90;;;;;;4935560;29;20183;-87
2022/10/22 09:16:10;;;;;;;7.77;6.73;;;14.60;99.90;;;;;;4945660;29;20189;-88
2022/10/22 09:18:45;;;;;;;13.27;6.37;;;14.80;99.90;;;;;;4919564;29;20200;-87
2022/10/22 09:21:14;;;;;;;6.93;5.70;;;14.80;99.90;;;;;;4927995;29;20193;-88
2022/10/22 09:23:59;;;;;;;9.37;6.60;;;14.70;99.90;;;;;;4947209;29;20179;-87
2022/10/22 09:26:26;;;;;;;8.43;6.50;;;14.80;99.90;;;;;;4934996;29;20589;-87
2022/10/22 09:28:52;;;;;;;8.63;6.70;;;14.90;99.90;;;;;;4937407;29;20215;-87
2022/10/22 09:31:18;;;;;;;9.67;6.83;;;15.00;99.90;;;;;;4940269;29;20621;-88
2022/10/22 09:33:47;;;;;;;8.30;7.03;;;15.00;99.90;;;;;;4954699;29;20522;-88
2022/10/22 09:36:20;;;;;;;8.83;7.07;;;15.10;99.90;;;;;;4933391;29;20297;-88
2022/10/22 09:38:49;;;;;;;7.13;6.43;;;15.00;99.90;;;;;;4940052;29;20212;-88
2022/10/22 09:41:15;;;;;;;6.30;5.70;;;15.00;99.90;;;;;;4954161;29;20213;-89
2022/10/22 09:43:40;;;;;;;10.70;6.03;;;15.10;99.90;;;;;;4952873;29;20189;-89
2022/10/22 09:46:14;;;;;;;9.07;6.43;;;15.10;99.90;;;;;;4954191;29;20262;-89
2022/10/22 09:48:42;;;;;;;9.63;6.40;;;15.00;99.90;;;;;;4956089;28;20164;-89
2022/10/22 09:51:19;;;;;;;8.00;5.67;;;15.00;99.90;;;;;;4955784;28;20727;-89
2022/10/22 09:53:54;;;;;;;9.57;7.10;;;15.10;99.90;;;;;;4965039;28;20225;-89
2022/10/22 09:56:34;;;;;;;6.67;5.97;;;15.10;99.90;;;;;;4978976;28;20178;-89
2022/10/22 09:59:00;;;;;;;9.80;6.53;;;15.20;99.90;;;;;;4967235;28;20207;-89
2022/10/22 10:01:37;;;;;;;7.57;6.77;;;15.20;99.90;;;;;;4984115;28;20221;-89
2022/10/22 10:04:09;;;;;;;6.93;6.13;;;15.20;99.90;;;;;;4980875;29;20159;-89
2022/10/22 10:06:38;;;;;;;7.40;5.97;;;15.30;99.90;;;;;;4966151;29;20159;-89
2022/10/22 10:09:24;;;;;;;7.40;6.13;;;15.30;99.90;;;;;;4982332;28;20246;-89
2022/10/22 10:12:21;;;;;;;10.07;7.17;;;15.20;99.90;;;;;;4961176;29;20199;-89
2022/10/22 10:15:01;;;;;;;10.37;6.90;;;15.30;99.90;;;;;;4942010;29;20199;-89
2022/10/22 10:17:44;;;;;;;6.87;5.87;;;15.20;99.90;;;;;;4959163;29;20167;-89
2022/10/22 10:20:13;;;;;;;6.97;6.30;;;15.30;99.90;;;;;;4944760;28;20573;-88
2022/10/22 10:23:01;;;;;;;6.87;6.07;;;15.30;99.90;;;;;;4961538;28;20283;-89
2022/10/22 10:25:57;;;;;;;8.77;7.50;;;15.30;99.90;;;;;;4961565;28;20174;-88
2022/10/22 10:28:23;;;;;;;8.20;6.30;;;15.40;99.90;;;;;;4962238;28;20270;-90
2022/10/22 10:30:57;;;;;;;7.60;6.00;;;15.40;99.90;;;;;;4979232;28;20596;-88
2022/10/22 10:33:57;;;;;;;7.00;6.30;;;15.40;99.90;;;;;;4962427;28;20185;-88
2022/10/22 10:36:29;;;;;;;8.90;6.70;;;15.40;99.90;;;;;;4981072;28;20163;-89
2022/10/22 10:39:16;;;;;;;9.53;6.50;;;15.40;99.90;;;;;;4963906;28;20285;-88
2022/10/22 10:41:56;;;;;;;6.70;6.00;;;15.50;99.90;;;;;;4964319;28;20194;-87
2022/10/22 10:44:54;;;;;;;8.20;6.70;;;15.50;99.90;;;;;;4958671;29;20620;-88
2022/10/22 10:47:44;;;;;;;8.87;6.30;;;15.50;99.90;;;;;;4941061;29;20182;-88
2022/10/22 10:50:33;;;;;;;8.20;7.30;;;15.50;99.90;;;;;;4961377;28;20242;-87
2022/10/22 10:53:09;;;;;;;9.33;6.67;;;15.50;99.90;;;;;;4980798;28;20708;-87
2022/10/22 10:55:46;;;;;;;7.73;6.43;;;15.50;99.90;;;;;;4965198;28;20253;-88
2022/10/22 10:58:40;;;;;;;9.50;7.00;;;15.60;99.90;;;;;;4978317;28;20197;-87
2022/10/22 11:01:23;;;;;;;9.27;6.70;;;15.60;99.90;;;;;;4966998;28;20187;-88
2022/10/22 11:04:19;;;;;;;8.53;6.77;;;15.70;99.90;;;;;;4940295;29;20289;-88
2022/10/22 11:06:46;;;;;;;7.80;7.00;;;15.70;99.90;;;;;;4958203;29;20168;-88
2022/10/22 11:09:19;;;;;;;7.37;6.30;;;15.70;99.90;;;;;;4940913;29;20183;-87
2022/10/22 11:12:01;;;;;;;9.57;7.60;;;15.80;99.90;;;;;;4955797;28;20213;-87
2022/10/22 11:15:05;;;;;;;9.07;7.67;;;15.90;99.90;;;;;;4959825;28;20170;-87
2022/10/22 11:17:38;;;;;;;12.40;9.50;;;15.90;99.90;;;;;;4899602;29;20594;-88
2022/10/22 11:20:06;;;;;;;12.43;9.20;;;16.00;99.90;;;;;;4897005;29;20291;-87
2022/10/22 11:22:32;;;;;;;13.87;8.83;;;16.00;99.90;;;;;;4864223;29;20674;-87
2022/10/22 11:25:01;;;;;;;10.53;7.37;;;16.10;99.90;;;;;;4880138;29;20212;-87
2022/10/22 11:27:36;;;;;;;9.50;7.63;;;16.30;99.90;;;;;;4864530;29;20186;-87
2022/10/22 11:30:12;;;;;;;9.47;8.00;;;16.40;99.90;;;;;;4881801;29;20555;-87
2022/10/22 11:32:40;;;;;;;8.30;7.53;;;16.60;99.90;;;;;;4884073;29;20173;-88
2022/10/22 11:35:31;;;;;;;10.33;7.93;;;16.70;99.90;;;;;;4905675;29;20768;-88
2022/10/22 11:37:58;;;;;;;10.20;8.07;;;16.80;99.90;;;;;;4916348;29;20228;-88
2022/10/22 11:40:42;;;;;;;14.67;8.67;;;16.90;99.90;;;;;;4905614;29;20288;-87
2022/10/22 11:43:10;;;;;;;10.83;8.80;;;16.90;99.90;;;;;;4883456;29;20182;-87
2022/10/22 11:45:39;;;;;;;11.63;8.70;;;16.80;99.90;;;;;;4868865;29;20178;-89
2022/10/22 11:48:09;;;;;;;10.93;8.43;;;16.80;99.90;;;;;;4864773;29;20225;-88
2022/10/22 11:50:59;;;;;;;12.27;9.30;;;16.80;99.90;;;;;;4886785;29;20829;-90
2022/10/22 11:53:24;;;;;;;11.17;9.53;;;16.80;99.90;;;;;;4934142;28;20256;-89
2022/10/22 11:55:54;;;;;;;9.90;8.77;;;16.60;99.90;;;;;;4979023;28;20183;-89
2022/10/22 11:58:43;;;;;;;10.77;9.60;;;16.50;99.90;;;;;;4997070;28;20195;-88
2022/10/22 12:01:09;;;;;;;11.30;9.30;;;16.50;99.90;;;;;;4950333;29;20187;-88
2022/10/22 12:03:39;;;;;;;14.07;10.07;;;16.50;99.90;;;;;;4957569;29;20187;-89
2022/10/22 12:06:12;;;;;;;11.67;9.63;;;16.40;99.90;;;;;;4958698;29;20570;-89
2022/10/22 12:08:53;;;;;;;13.20;9.93;;;16.40;99.90;;;;;;4942525;29;20183;-89
2022/10/22 12:11:39;;;;;;;11.47;9.50;;;16.40;99.90;;;;;;4952314;28;20553;-88
2022/10/22 12:14:18;;;;;;;11.57;10.37;;;16.30;99.90;;;;;;4976408;28;20227;-89
2022/10/22 12:17:03;;;;;;;11.77;10.37;;;16.30;99.90;;;;;;4960526;28;20182;-89
2022/10/22 12:19:33;;;;;;;14.17;11.23;;;16.20;99.90;;;;;;4977294;28;20198;-88
2022/10/22 12:22:12;;;;;;;12.77;10.53;;;16.20;99.90;;;;;;4944063;29;20191;-88
2022/10/22 12:24:41;;;;;;;15.10;11.17;;;16.30;99.90;;;;;;4942403;29;20183;-88
2022/10/22 12:27:25;;;;;;;13.43;10.50;;;16.20;99.90;;;;;;4957315;29;20206;-89
2022/10/22 12:29:59;;;;;;;14.87;10.97;;;16.10;99.90;;;;;;4956437;28;20178;-87
2022/10/22 12:32:40;;;;;;;17.60;11.57;;;16.00;99.90;;;;;;4975830;28;20202;-88
2022/10/22 12:35:15;;;;;;;13.10;11.20;;;15.90;99.90;;;;;;4976105;28;20175;-88
2022/10/22 12:37:41;;;;;;;12.03;10.07;;;15.90;99.90;;;;;;4959019;28;20290;-88
2022/10/22 12:40:23;;;;;;;13.60;10.97;;;15.80;99.90;;;;;;4956271;28;20562;-87
2022/10/22 12:42:54;;;;;;;11.67;10.40;;;15.80;99.90;;;;;;4957423;29;20550;-88
2022/10/22 12:45:21;;;;;;;13.90;10.70;;;15.70;99.90;;;;;;4956435;29;20557;-88
2022/10/22 12:47:56;;;;;;;15.23;10.67;;;15.70;99.90;;;;;;4938824;29;20179;-88
2022/10/22 12:50:38;;;;;;;14.07;11.33;;;15.70;99.90;;;;;;4955711;29;20181;-88
2022/10/22 12:53:23;;;;;;;14.50;10.63;;;15.70;99.90;;;;;;4938404;29;20278;-89
2022/10/22 12:55:52;;;;;;;14.63;10.73;;;15.70;99.90;;;;;;4938805;29;20190;-88